Time;durP1;ratioP1;P1;durP2;ratioP2;P2;SDS_P1;SDS_P2;PMS_P1;PMS_P2;Temp;Humidity;BMP_temperature;BMP_pressure;BME280_temperature;BME280_humidity;BME280_pressure;Samples;Min_cycle;Max_cycle;Signal;HPM_P1;HPM_P2
2023/06/26 00:00:18;;;;;;;9.37;8.47;;;30.30;51.10;;;;;;5055934;28;20909;-78
2023/06/26 00:02:46;;;;;;;8.17;7.40;;;30.30;50.80;;;;;;5056133;28;20537;-78
2023/06/26 00:05:14;;;;;;;8.53;7.83;;;30.20;51.20;;;;;;5053876;28;20489;-78
2023/06/26 00:07:42;;;;;;;9.63;8.80;;;30.20;51.10;;;;;;5055078;28;20441;-78
2023/06/26 00:10:10;;;;;;;8.40;7.70;;;30.20;51.00;;;;;;5055707;28;20434;-78
2023/06/26 00:12:37;;;;;;;9.40;8.40;;;30.20;51.40;;;;;;5053060;28;20445;-78
2023/06/26 00:15:08;;;;;;;9.30;8.17;;;30.20;50.80;;;;;;5066204;28;20493;-78
2023/06/26 00:17:37;;;;;;;8.53;7.70;;;30.10;51.20;;;;;;5066299;28;20484;-78
2023/06/26 00:20:06;;;;;;;8.57;7.87;;;30.10;51.20;;;;;;5066331;28;20447;-78
2023/06/26 00:22:34;;;;;;;8.97;8.13;;;30.10;51.20;;;;;;5060484;28;20465;-79
2023/06/26 00:25:03;;;;;;;10.70;8.23;;;30.10;51.20;;;;;;5063884;28;20513;-78
2023/06/26 00:27:31;;;;;;;9.37;8.40;;;30.20;50.70;;;;;;5078424;28;20446;-78
2023/06/26 00:29:59;;;;;;;9.07;8.27;;;30.10;51.50;;;;;;5064971;28;20465;-79
2023/06/26 00:32:29;;;;;;;9.27;7.60;;;29.90;51.70;;;;;;5057762;28;20469;-78
2023/06/26 00:34:57;;;;;;;9.90;8.83;;;29.90;51.60;;;;;;5071891;28;20458;-78
2023/06/26 00:37:25;;;;;;;8.77;8.10;;;30.00;51.50;;;;;;5059634;28;20474;-78
2023/06/26 00:39:53;;;;;;;9.47;8.67;;;30.00;51.50;;;;;;5056183;28;20530;-78
2023/06/26 00:42:20;;;;;;;9.20;8.40;;;30.10;51.30;;;;;;5058674;28;20872;-78
2023/06/26 00:44:48;;;;;;;8.83;7.93;;;30.10;51.60;;;;;;5058277;28;20501;-78
2023/06/26 00:47:17;;;;;;;9.13;8.33;;;30.20;51.30;;;;;;5058676;28;20531;-78
2023/06/26 00:49:46;;;;;;;9.73;8.93;;;30.00;51.40;;;;;;5061518;28;20502;-78
2023/06/26 00:52:16;;;;;;;9.17;8.37;;;30.00;51.70;;;;;;5071462;28;20462;-78
2023/06/26 00:54:44;;;;;;;9.70;8.70;;;30.00;51.60;;;;;;5059060;28;20456;-78
2023/06/26 00:57:12;;;;;;;11.70;9.20;;;30.00;51.50;;;;;;5057397;28;20513;-78
2023/06/26 00:59:40;;;;;;;9.47;8.60;;;30.00;51.60;;;;;;5064191;28;20441;-77
2023/06/26 01:02:07;;;;;;;8.70;7.83;;;29.90;51.60;;;;;;5069276;28;20506;-78
2023/06/26 01:04:35;;;;;;;11.93;8.97;;;30.00;51.60;;;;;;5059876;28;20475;-78
2023/06/26 01:07:07;;;;;;;9.37;8.57;;;29.80;51.90;;;;;;5060282;28;20442;-77
2023/06/26 01:09:35;;;;;;;8.83;8.03;;;29.90;51.90;;;;;;5068113;28;20464;-77
2023/06/26 01:12:03;;;;;;;9.97;8.93;;;29.80;51.90;;;;;;5055080;28;20450;-78
2023/06/26 01:14:33;;;;;;;9.93;9.10;;;29.80;51.80;;;;;;5067237;28;20451;-78
2023/06/26 01:17:00;;;;;;;9.20;8.50;;;29.80;51.90;;;;;;5059987;28;20511;-78
2023/06/26 01:19:30;;;;;;;9.57;8.77;;;29.70;52.30;;;;;;5068365;28;20450;-78
2023/06/26 01:21:59;;;;;;;10.67;8.80;;;29.70;52.20;;;;;;5060393;28;20525;-77
2023/06/26 01:24:33;;;;;;;8.93;8.13;;;29.60;52.50;;;;;;5067765;28;20926;-77
2023/06/26 01:27:03;;;;;;;9.30;8.50;;;29.70;52.70;;;;;;5068143;28;20442;-78
2023/06/26 01:29:31;;;;;;;9.07;8.37;;;29.90;52.30;;;;;;5058189;28;20458;-78
2023/06/26 01:32:00;;;;;;;9.87;8.90;;;29.80;51.90;;;;;;5067763;28;20533;-78
2023/06/26 01:34:28;;;;;;;10.20;9.20;;;29.80;52.20;;;;;;5059529;28;20517;-78
2023/06/26 01:36:56;;;;;;;9.60;8.80;;;29.80;52.30;;;;;;5059621;28;20450;-78
2023/06/26 01:39:24;;;;;;;10.43;9.53;;;29.80;52.50;;;;;;5066805;28;20468;-78
2023/06/26 01:41:52;;;;;;;9.10;8.20;;;29.60;52.40;;;;;;5066037;28;20458;-78
2023/06/26 01:44:27;;;;;;;9.87;8.87;;;29.80;52.80;;;;;;5065187;28;20509;-78
2023/06/26 01:47:01;;;;;;;9.90;9.00;;;29.70;52.90;;;;;;5050562;28;20477;-78
2023/06/26 01:49:45;;;;;;;10.03;9.23;;;29.70;52.40;;;;;;5067618;28;20465;-78
2023/06/26 01:52:17;;;;;;;10.00;9.13;;;29.70;52.40;;;;;;5059194;28;20517;-78
2023/06/26 01:54:49;;;;;;;9.73;8.87;;;29.50;52.80;;;;;;5067292;28;20541;-78
2023/06/26 01:57:18;;;;;;;10.53;9.37;;;29.60;53.00;;;;;;5058977;28;20469;-78
2023/06/26 01:59:48;;;;;;;12.10;9.17;;;29.60;52.90;;;;;;5059287;28;20435;-78
2023/06/26 02:02:16;;;;;;;9.93;8.93;;;29.50;52.40;;;;;;5057559;28;20474;-78
2023/06/26 02:04:44;;;;;;;11.77;9.30;;;29.20;53.40;;;;;;5058144;28;20474;-77
2023/06/26 02:07:12;;;;;;;11.17;10.00;;;29.20;54.00;;;;;;5069603;28;20469;-77
2023/06/26 02:09:40;;;;;;;15.27;9.97;;;29.10;53.30;;;;;;5058961;28;20465;-77
2023/06/26 02:12:08;;;;;;;11.07;9.80;;;28.90;54.30;;;;;;5070198;28;20514;-77
2023/06/26 02:14:37;;;;;;;10.97;9.90;;;28.80;54.40;;;;;;5070572;28;20492;-77
2023/06/26 02:17:08;;;;;;;10.83;9.83;;;28.80;54.40;;;;;;5066239;28;20470;-78
2023/06/26 02:19:36;;;;;;;10.47;9.43;;;28.90;54.70;;;;;;5057858;28;20538;-78
2023/06/26 02:22:05;;;;;;;9.67;8.80;;;28.90;54.50;;;;;;5061433;28;20445;-78
2023/06/26 02:24:34;;;;;;;12.97;10.13;;;28.80;54.50;;;;;;5061035;28;20466;-78
2023/06/26 02:27:02;;;;;;;13.40;9.57;;;28.70;54.40;;;;;;5060883;28;20454;-78
2023/06/26 02:29:30;;;;;;;10.30;9.00;;;28.50;55.30;;;;;;5059843;28;20451;-77
2023/06/26 02:31:58;;;;;;;11.53;9.73;;;28.40;55.80;;;;;;5057480;28;20429;-78
2023/06/26 02:34:27;;;;;;;12.17;9.57;;;28.40;56.10;;;;;;5052892;28;20469;-77
2023/06/26 02:36:55;;;;;;;11.27;9.70;;;28.50;55.70;;;;;;5048459;28;20474;-77
2023/06/26 02:39:23;;;;;;;10.97;9.67;;;28.50;55.40;;;;;;5050566;28;20417;-77
2023/06/26 02:41:51;;;;;;;11.13;10.13;;;28.30;55.80;;;;;;5053919;28;20541;-78
2023/06/26 02:44:19;;;;;;;11.23;9.60;;;28.50;55.60;;;;;;5054689;28;20466;-77
2023/06/26 02:46:48;;;;;;;10.60;9.50;;;28.50;55.40;;;;;;5053912;28;20561;-77
2023/06/26 02:49:16;;;;;;;11.10;9.93;;;28.60;55.40;;;;;;5057262;28;20447;-77
2023/06/26 02:51:45;;;;;;;10.60;9.60;;;28.60;55.20;;;;;;5054463;28;20477;-77
2023/06/26 02:54:13;;;;;;;10.70;9.80;;;28.70;55.40;;;;;;5053435;28;20536;-78
2023/06/26 02:56:41;;;;;;;10.67;8.83;;;28.80;54.70;;;;;;5053981;28;20481;-77
2023/06/26 02:59:14;;;;;;;10.20;9.30;;;28.80;55.00;;;;;;5054858;28;20453;-78
2023/06/26 03:01:42;;;;;;;11.43;9.63;;;28.90;54.70;;;;;;5054321;28;20473;-77
2023/06/26 03:04:11;;;;;;;10.67;9.57;;;28.80;54.90;;;;;;5050002;28;20466;-78
2023/06/26 03:06:39;;;;;;;10.17;9.20;;;28.80;54.90;;;;;;5061562;28;20540;-78
2023/06/26 03:09:08;;;;;;;10.40;9.40;;;29.00;54.50;;;;;;5061644;28;20458;-78
2023/06/26 03:11:37;;;;;;;10.17;9.20;;;29.00;54.10;;;;;;5038771;28;20418;-78
2023/06/26 03:14:05;;;;;;;9.80;8.90;;;29.00;53.90;;;;;;5053224;28;20532;-78
2023/06/26 03:16:33;;;;;;;9.57;8.77;;;28.90;54.30;;;;;;5053511;28;20826;-78
2023/06/26 03:19:01;;;;;;;12.30;10.00;;;29.00;54.50;;;;;;5045292;28;20438;-78
2023/06/26 03:21:30;;;;;;;16.07;9.30;;;28.90;54.30;;;;;;5056614;28;20536;-77
2023/06/26 03:23:58;;;;;;;10.63;9.63;;;28.80;54.10;;;;;;5054548;28;20512;-78
2023/06/26 03:26:28;;;;;;;10.00;8.90;;;28.90;54.20;;;;;;5052715;28;20563;-77
2023/06/26 03:28:56;;;;;;;10.30;9.30;;;28.90;53.90;;;;;;5053185;28;20508;-77
2023/06/26 03:31:24;;;;;;;11.07;8.90;;;28.80;54.60;;;;;;5055153;28;20448;-77
2023/06/26 03:33:52;;;;;;;10.77;9.73;;;28.90;54.10;;;;;;5056364;28;20466;-77
2023/06/26 03:36:21;;;;;;;10.87;9.87;;;28.90;53.70;;;;;;5056768;28;20432;-77
2023/06/26 03:38:48;;;;;;;10.40;9.30;;;28.80;53.90;;;;;;5056912;28;20542;-77
2023/06/26 03:41:17;;;;;;;9.87;8.63;;;28.80;54.10;;;;;;5057113;28;20454;-77
2023/06/26 03:43:46;;;;;;;10.37;9.37;;;28.80;54.60;;;;;;5057358;28;20500;-77
2023/06/26 03:46:14;;;;;;;15.33;8.80;;;28.70;54.50;;;;;;5050018;28;20502;-77
2023/06/26 03:48:42;;;;;;;12.03;9.97;;;28.70;54.30;;;;;;5066250;28;20529;-77
2023/06/26 03:51:11;;;;;;;11.30;9.50;;;28.70;54.20;;;;;;5069715;28;20485;-77
2023/06/26 03:53:39;;;;;;;10.13;9.13;;;28.60;54.60;;;;;;5056001;28;20477;-78
2023/06/26 03:56:07;;;;;;;11.53;9.23;;;28.50;55.10;;;;;;5056719;28;20446;-77
2023/06/26 03:58:35;;;;;;;11.80;9.80;;;28.60;55.30;;;;;;5056122;28;20508;-78
2023/06/26 04:01:05;;;;;;;10.63;9.53;;;28.60;54.30;;;;;;5052542;28;21091;-78
2023/06/26 04:03:35;;;;;;;11.70;10.20;;;28.20;55.00;;;;;;5055940;28;20450;-78
2023/06/26 04:06:03;;;;;;;12.33;9.67;;;28.20;55.40;;;;;;5047443;28;20463;-77
2023/06/26 04:08:31;;;;;;;12.97;9.87;;;28.10;55.10;;;;;;5063648;28;20472;-78
2023/06/26 04:11:00;;;;;;;11.77;9.20;;;28.00;55.80;;;;;;5062473;28;20492;-77
2023/06/26 04:13:28;;;;;;;13.40;10.50;;;27.90;55.90;;;;;;5061944;28;20448;-78
2023/06/26 04:15:56;;;;;;;12.47;9.83;;;27.90;56.10;;;;;;5069302;28;20453;-78
2023/06/26 04:18:26;;;;;;;10.47;9.57;;;27.90;56.60;;;;;;5070115;28;20428;-77
2023/06/26 04:21:07;;;;;;;15.37;10.00;;;27.90;56.30;;;;;;5071695;28;20473;-77
2023/06/26 04:23:35;;;;;;;10.77;9.50;;;27.80;56.60;;;;;;5064742;28;20413;-77
2023/06/26 04:26:04;;;;;;;11.20;9.00;;;27.70;57.00;;;;;;5050016;28;20467;-77
2023/06/26 04:28:32;;;;;;;11.03;9.77;;;27.80;56.60;;;;;;5056916;28;20446;-78
2023/06/26 04:31:01;;;;;;;10.60;9.47;;;27.80;56.90;;;;;;5063825;28;20446;-78
2023/06/26 04:33:30;;;;;;;11.27;9.60;;;27.90;56.70;;;;;;5056357;28;20448;-77
2023/06/26 04:36:03;;;;;;;10.00;9.10;;;28.10;56.10;;;;;;5047682;28;20494;-77
2023/06/26 04:38:31;;;;;;;12.00;9.30;;;28.10;56.70;;;;;;5056889;28;20445;-77
2023/06/26 04:40:59;;;;;;;13.17;9.43;;;28.00;56.10;;;;;;5065589;28;20421;-77
2023/06/26 04:43:28;;;;;;;10.73;9.67;;;28.00;56.40;;;;;;5064188;28;20467;-77
2023/06/26 04:45:56;;;;;;;10.43;9.47;;;27.80;56.10;;;;;;5059122;28;20561;-77
2023/06/26 04:48:24;;;;;;;11.43;10.27;;;27.80;57.10;;;;;;5062327;28;20431;-77
2023/06/26 04:50:54;;;;;;;11.57;10.47;;;27.70;56.70;;;;;;5067839;28;20465;-76
2023/06/26 04:53:22;;;;;;;13.70;10.60;;;27.80;57.60;;;;;;5070771;28;20421;-77
2023/06/26 04:55:51;;;;;;;12.60;11.10;;;27.80;57.00;;;;;;5049461;28;20474;-77
2023/06/26 04:58:19;;;;;;;20.47;10.80;;;27.70;56.60;;;;;;5054683;28;20444;-77
2023/06/26 05:00:47;;;;;;;16.93;10.43;;;27.60;57.20;;;;;;5056747;28;20545;-77
2023/06/26 05:03:17;;;;;;;13.10;11.27;;;27.60;57.50;;;;;;5050650;28;20414;-77
2023/06/26 05:05:46;;;;;;;14.30;10.10;;;27.60;57.20;;;;;;5051522;28;20441;-76
2023/06/26 05:08:16;;;;;;;14.20;10.77;;;27.60;57.70;;;;;;5054515;28;20460;-77
2023/06/26 05:10:44;;;;;;;12.50;11.17;;;27.60;57.30;;;;;;5063319;28;20517;-78
2023/06/26 05:13:14;;;;;;;13.60;9.93;;;27.50;57.70;;;;;;5044369;28;20488;-77
2023/06/26 05:15:43;;;;;;;11.70;10.50;;;27.60;57.70;;;;;;5055636;28;20471;-78
2023/06/26 05:18:10;;;;;;;13.10;11.10;;;27.50;57.70;;;;;;5058572;28;20507;-78
2023/06/26 05:20:39;;;;;;;11.77;10.40;;;27.50;57.50;;;;;;5057592;28;20444;-78
2023/06/26 05:23:08;;;;;;;12.13;10.90;;;27.60;57.20;;;;;;5045544;28;20443;-76
2023/06/26 05:25:40;;;;;;;14.57;10.80;;;27.60;57.30;;;;;;5053450;28;20531;-76
2023/06/26 05:28:10;;;;;;;13.83;11.23;;;27.40;57.90;;;;;;5053185;28;20473;-76
2023/06/26 05:30:39;;;;;;;12.77;11.00;;;27.30;58.70;;;;;;5053222;28;20446;-76
2023/06/26 05:33:08;;;;;;;11.40;10.27;;;27.50;58.20;;;;;;5053527;28;20451;-76
2023/06/26 05:35:35;;;;;;;12.07;10.60;;;27.60;58.70;;;;;;5053209;28;20520;-77
2023/06/26 05:38:04;;;;;;;16.60;11.23;;;27.60;57.90;;;;;;5054397;28;20477;-77
2023/06/26 05:40:33;;;;;;;10.83;9.80;;;27.50;57.70;;;;;;5054126;28;20565;-77
2023/06/26 05:43:03;;;;;;;12.90;10.60;;;27.50;58.30;;;;;;5063409;28;20455;-77
2023/06/26 05:45:31;;;;;;;12.17;10.97;;;27.60;57.80;;;;;;5046005;28;20504;-77
2023/06/26 05:47:59;;;;;;;12.37;10.73;;;27.60;57.80;;;;;;5044322;28;20537;-77
2023/06/26 05:50:29;;;;;;;15.13;9.73;;;27.70;58.30;;;;;;5052626;28;20421;-77
2023/06/26 05:52:57;;;;;;;14.90;11.07;;;27.80;57.90;;;;;;5047977;28;20472;-77
2023/06/26 05:55:26;;;;;;;19.67;11.20;;;27.70;57.50;;;;;;5052486;28;20513;-77
2023/06/26 05:57:57;;;;;;;16.17;10.50;;;27.60;57.90;;;;;;5052635;28;20506;-77
2023/06/26 06:00:29;;;;;;;13.07;11.70;;;27.90;58.00;;;;;;5052824;28;20413;-77
2023/06/26 06:02:57;;;;;;;17.10;11.00;;;28.00;57.80;;;;;;5053096;28;20508;-77
2023/06/26 06:05:25;;;;;;;15.10;11.83;;;28.20;56.90;;;;;;5052965;28;20466;-77
2023/06/26 06:07:53;;;;;;;15.50;11.43;;;28.30;57.00;;;;;;5052444;28;20533;-77
2023/06/26 06:10:21;;;;;;;15.73;10.87;;;28.50;56.70;;;;;;5046235;28;20489;-77
2023/06/26 06:12:49;;;;;;;17.77;13.10;;;28.50;56.60;;;;;;5053268;28;20522;-77
2023/06/26 06:15:18;;;;;;;12.17;10.97;;;28.60;56.40;;;;;;5053697;28;20458;-76
2023/06/26 06:17:48;;;;;;;13.70;11.47;;;28.50;57.00;;;;;;5052876;28;21038;-77
2023/06/26 06:20:16;;;;;;;13.87;11.37;;;28.70;56.80;;;;;;5057589;28;20457;-77
2023/06/26 06:22:44;;;;;;;11.83;10.63;;;28.80;56.20;;;;;;5052291;28;20446;-77
2023/06/26 06:25:12;;;;;;;15.93;12.27;;;28.90;56.10;;;;;;5052911;28;20509;-77
2023/06/26 06:27:40;;;;;;;13.70;10.87;;;29.00;55.70;;;;;;5052700;28;20561;-77
2023/06/26 06:30:10;;;;;;;12.70;11.40;;;29.20;55.40;;;;;;5059566;28;20473;-77
2023/06/26 06:32:38;;;;;;;13.03;10.83;;;29.20;55.60;;;;;;5073978;28;20409;-77
2023/06/26 06:35:09;;;;;;;10.97;9.87;;;29.20;55.40;;;;;;5064073;28;20542;-77
2023/06/26 06:37:38;;;;;;;13.60;11.60;;;29.20;55.30;;;;;;5076945;28;20445;-77
2023/06/26 06:40:08;;;;;;;16.73;11.23;;;29.30;55.30;;;;;;5078644;28;20423;-77
2023/06/26 06:42:36;;;;;;;13.37;11.10;;;29.30;55.20;;;;;;5079412;28;20425;-78
2023/06/26 06:45:04;;;;;;;12.53;10.80;;;29.30;55.20;;;;;;5075478;28;20500;-77
2023/06/26 06:47:32;;;;;;;13.77;11.67;;;29.50;55.10;;;;;;5074752;28;20433;-77
2023/06/26 06:50:07;;;;;;;13.70;10.23;;;29.50;55.00;;;;;;5078092;28;20454;-77
2023/06/26 06:52:40;;;;;;;17.60;11.27;;;29.40;55.00;;;;;;5060896;28;20568;-77
2023/06/26 06:55:09;;;;;;;12.77;11.23;;;29.30;55.10;;;;;;5054229;28;20885;-77
2023/06/26 06:57:38;;;;;;;11.80;10.60;;;29.20;55.30;;;;;;5053747;28;20439;-77
2023/06/26 07:00:08;;;;;;;11.57;10.37;;;29.30;55.40;;;;;;5053707;28;20450;-78
2023/06/26 07:02:37;;;;;;;13.40;11.40;;;29.20;55.80;;;;;;5061540;28;21012;-77
2023/06/26 07:05:05;;;;;;;14.07;10.00;;;29.30;55.40;;;;;;5047763;28;20474;-76
2023/06/26 07:07:33;;;;;;;17.90;12.03;;;29.30;55.30;;;;;;5046969;28;20505;-76
2023/06/26 07:10:04;;;;;;;14.40;12.07;;;29.30;55.40;;;;;;5056848;28;20502;-76
2023/06/26 07:12:33;;;;;;;16.77;11.60;;;29.10;56.10;;;;;;5054892;28;20798;-76
2023/06/26 07:15:01;;;;;;;17.03;11.70;;;29.00;56.70;;;;;;5057470;28;20466;-77
2023/06/26 07:17:30;;;;;;;15.43;12.07;;;28.90;56.90;;;;;;5051482;28;20440;-78
2023/06/26 07:19:58;;;;;;;15.53;11.40;;;28.80;57.60;;;;;;5051652;28;20443;-78
2023/06/26 07:22:26;;;;;;;14.33;10.73;;;29.00;57.80;;;;;;5053968;28;20421;-78
2023/06/26 07:24:55;;;;;;;16.40;10.93;;;29.30;56.90;;;;;;5066802;28;20531;-78
2023/06/26 07:27:24;;;;;;;12.00;10.33;;;29.10;56.50;;;;;;5056840;28;20474;-75
2023/06/26 07:29:52;;;;;;;12.53;9.00;;;29.00;57.20;;;;;;5054302;28;20434;-79
2023/06/26 07:32:20;;;;;;;13.17;10.87;;;29.10;57.20;;;;;;5060105;28;20489;-77
2023/06/26 07:34:48;;;;;;;13.07;10.87;;;28.90;58.00;;;;;;5052898;28;20489;-78
2023/06/26 07:37:16;;;;;;;15.70;10.70;;;28.70;59.40;;;;;;5054357;28;20459;-77
2023/06/26 07:39:44;;;;;;;13.50;10.80;;;28.30;61.70;;;;;;5058371;28;20421;-77
2023/06/26 07:42:12;;;;;;;16.57;11.27;;;28.30;63.40;;;;;;5070368;28;20450;-77
2023/06/26 07:44:42;;;;;;;23.30;12.03;;;28.40;63.80;;;;;;5061468;28;20441;-77
2023/06/26 07:47:11;;;;;;;16.97;10.07;;;28.10;64.60;;;;;;5070055;28;20446;-77
2023/06/26 07:49:40;;;;;;;10.73;9.60;;;27.80;66.50;;;;;;5054407;28;20533;-77
2023/06/26 07:52:10;;;;;;;11.97;8.87;;;28.10;67.50;;;;;;5057736;28;20434;-77
2023/06/26 07:54:38;;;;;;;11.67;8.50;;;28.50;65.60;;;;;;5059904;28;20475;-78
2023/06/26 07:57:08;;;;;;;13.03;8.20;;;28.90;63.60;;;;;;5054845;28;20450;-78
2023/06/26 07:59:36;;;;;;;12.37;7.87;;;29.20;62.20;;;;;;5056511;28;20424;-78
2023/06/26 08:02:07;;;;;;;9.70;7.50;;;29.50;60.80;;;;;;5059170;28;20459;-79
2023/06/26 08:04:35;;;;;;;8.70;7.80;;;29.70;60.70;;;;;;5065531;28;20459;-81
2023/06/26 08:07:04;;;;;;;10.00;7.60;;;29.80;59.30;;;;;;5064749;28;20461;-81
2023/06/26 08:09:32;;;;;;;11.80;7.73;;;29.90;58.90;;;;;;5072582;28;20470;-80
2023/06/26 08:12:00;;;;;;;9.30;7.10;;;30.10;58.50;;;;;;5067534;28;20466;-81
2023/06/26 08:14:28;;;;;;;10.53;6.70;;;30.20;58.10;;;;;;5058281;28;20497;-81
2023/06/26 08:16:56;;;;;;;12.50;7.53;;;30.30;57.80;;;;;;5068508;28;20429;-80
2023/06/26 08:19:25;;;;;;;11.50;6.63;;;30.50;57.60;;;;;;5068564;28;20446;-81
2023/06/26 08:21:53;;;;;;;8.73;7.03;;;30.60;57.30;;;;;;5066916;28;20449;-81
2023/06/26 08:24:21;;;;;;;11.53;6.87;;;30.70;57.10;;;;;;5067195;28;20471;-80
2023/06/26 08:26:49;;;;;;;10.03;6.77;;;30.80;56.60;;;;;;5062804;28;20505;-81
2023/06/26 08:29:17;;;;;;;8.33;6.80;;;30.90;56.40;;;;;;5061123;28;20467;-80
2023/06/26 08:31:45;;;;;;;8.30;7.00;;;31.00;56.30;;;;;;5066727;28;20447;-80
2023/06/26 08:34:13;;;;;;;8.13;6.70;;;31.10;56.10;;;;;;5068023;28;20524;-81
2023/06/26 08:36:44;;;;;;;7.60;6.47;;;31.20;55.80;;;;;;5065254;28;20451;-81
2023/06/26 08:39:12;;;;;;;10.93;6.57;;;31.30;55.50;;;;;;5053007;28;20506;-81
2023/06/26 08:41:40;;;;;;;7.53;6.70;;;31.40;55.30;;;;;;5066013;28;20442;-81
2023/06/26 08:44:08;;;;;;;7.33;6.63;;;31.50;55.10;;;;;;5060494;28;20498;-81
2023/06/26 08:46:37;;;;;;;7.00;6.40;;;31.50;54.80;;;;;;5063538;28;20478;-81
2023/06/26 08:49:08;;;;;;;7.00;6.40;;;31.60;54.70;;;;;;5065971;28;20478;-81
2023/06/26 08:51:36;;;;;;;6.47;5.87;;;31.70;54.30;;;;;;5066601;28;20430;-81
2023/06/26 08:54:08;;;;;;;6.27;5.67;;;31.80;54.80;;;;;;5056671;28;20636;-78
2023/06/26 08:56:38;;;;;;;6.43;5.83;;;31.80;53.90;;;;;;5049407;28;20454;-79
2023/06/26 08:59:06;;;;;;;6.47;5.43;;;31.90;53.90;;;;;;5057064;28;20814;-77
2023/06/26 09:01:34;;;;;;;5.93;5.53;;;32.00;53.60;;;;;;5054250;28;20529;-81
2023/06/26 09:04:02;;;;;;;8.50;5.97;;;32.10;53.20;;;;;;5057771;28;20916;-81
2023/06/26 09:06:31;;;;;;;12.17;6.23;;;32.10;53.40;;;;;;5064560;28;20514;-81
2023/06/26 09:09:01;;;;;;;5.80;5.40;;;32.20;53.30;;;;;;5065833;28;20459;-80
2023/06/26 09:11:30;;;;;;;5.77;5.30;;;32.30;53.20;;;;;;5067105;28;20451;-81
2023/06/26 09:13:58;;;;;;;5.80;5.30;;;32.40;52.80;;;;;;5067269;28;20477;-81
2023/06/26 09:16:27;;;;;;;6.37;4.50;;;32.50;52.70;;;;;;5067684;28;20447;-81
2023/06/26 09:18:56;;;;;;;6.70;5.53;;;32.50;52.60;;;;;;5070452;28;20446;-80
2023/06/26 09:21:25;;;;;;;5.57;5.17;;;32.50;52.40;;;;;;5063371;28;20453;-81
2023/06/26 09:23:53;;;;;;;6.27;5.17;;;32.50;52.30;;;;;;5063709;28;20470;-82
2023/06/26 09:26:22;;;;;;;5.43;5.03;;;32.50;52.30;;;;;;5057612;28;20450;-81
2023/06/26 09:28:52;;;;;;;5.63;5.00;;;32.50;52.20;;;;;;5061968;28;20466;-81
2023/06/26 09:31:20;;;;;;;5.70;4.90;;;32.50;52.20;;;;;;5054467;28;20458;-81
2023/06/26 09:34:08;;;;;;;5.47;4.97;;;32.70;52.10;;;;;;5050163;28;20488;-81
2023/06/26 09:36:37;;;;;;;5.30;4.80;;;32.70;51.90;;;;;;5052213;28;20435;-81
2023/06/26 09:39:10;;;;;;;5.40;4.40;;;32.80;51.60;;;;;;5055580;28;20445;-82
2023/06/26 09:41:41;;;;;;;4.60;4.20;;;32.70;51.30;;;;;;5047885;28;20442;-79
2023/06/26 09:44:11;;;;;;;5.33;2.60;;;32.70;51.20;;;;;;5055590;28;20462;-79
2023/06/26 09:46:42;;;;;;;7.23;3.10;;;32.50;49.20;;;;;;5051280;28;20462;-79
2023/06/26 09:49:11;;;;;;;2.90;2.63;;;32.50;48.80;;;;;;5059174;28;20478;-80
2023/06/26 09:51:40;;;;;;;4.63;2.63;;;32.30;48.80;;;;;;5061535;28;20499;-78
2023/06/26 09:54:09;;;;;;;8.13;2.70;;;32.30;48.50;;;;;;5056675;28;20462;-79
2023/06/26 09:56:37;;;;;;;6.00;2.57;;;32.30;48.60;;;;;;5048813;28;20443;-80
2023/06/26 09:59:05;;;;;;;6.90;2.67;;;32.30;48.20;;;;;;5050479;28;20442;-77
2023/06/26 10:01:40;;;;;;;3.20;2.33;;;32.30;48.10;;;;;;5048850;28;20839;-78
2023/06/26 10:04:08;;;;;;;3.13;2.00;;;32.50;47.50;;;;;;5047419;28;20469;-78
2023/06/26 10:06:39;;;;;;;3.30;2.20;;;32.50;46.80;;;;;;5054533;28;20546;-78
2023/06/26 10:09:08;;;;;;;3.03;2.00;;;32.60;46.00;;;;;;5054706;28;20513;-79
2023/06/26 10:11:38;;;;;;;4.03;1.90;;;32.60;45.60;;;;;;5047635;28;20452;-79
2023/06/26 10:14:06;;;;;;;6.33;2.13;;;32.70;45.50;;;;;;5058870;28;20474;-79
2023/06/26 10:16:46;;;;;;;9.93;2.00;;;32.70;45.10;;;;;;5047124;28;20935;-79
2023/06/26 10:19:14;;;;;;;2.50;2.07;;;32.70;44.80;;;;;;5049513;28;20446;-79
2023/06/26 10:21:42;;;;;;;3.20;1.77;;;32.70;43.90;;;;;;5056451;28;20871;-79
2023/06/26 10:24:14;;;;;;;2.57;1.90;;;32.80;43.50;;;;;;5054772;28;20891;-78
2023/06/26 10:26:45;;;;;;;5.63;1.67;;;32.80;43.40;;;;;;5050778;28;20497;-78
2023/06/26 10:29:36;;;;;;;3.23;1.80;;;32.80;43.00;;;;;;5057136;28;20466;-80
2023/06/26 10:32:11;;;;;;;1.67;1.37;;;32.80;43.00;;;;;;5055162;28;20492;-78
2023/06/26 10:34:39;;;;;;;3.47;1.80;;;32.90;42.80;;;;;;5053944;28;20497;-78
2023/06/26 10:37:06;;;;;;;4.37;1.60;;;32.90;42.60;;;;;;5054514;28;20515;-79
2023/06/26 10:39:47;;;;;;;6.03;1.70;;;32.90;42.10;;;;;;5048724;28;20451;-79
2023/06/26 10:42:16;;;;;;;2.60;1.70;;;32.80;42.40;;;;;;5055018;28;20453;-78
2023/06/26 10:44:44;;;;;;;3.13;1.60;;;32.80;42.00;;;;;;5063465;28;20490;-78
2023/06/26 10:47:29;;;;;;;4.30;1.97;;;32.90;42.10;;;;;;5062636;28;20503;-78
2023/06/26 10:49:57;;;;;;;3.43;2.03;;;32.90;41.80;;;;;;5054109;28;20981;-78
2023/06/26 10:52:40;;;;;;;6.57;1.90;;;33.00;41.90;;;;;;5065129;28;20539;-78
2023/06/26 10:55:12;;;;;;;1.73;1.63;;;33.00;41.60;;;;;;5048129;28;20489;-78
2023/06/26 10:57:40;;;;;;;2.97;1.93;;;33.00;41.80;;;;;;5057448;28;20493;-79
2023/06/26 11:00:11;;;;;;;4.13;1.80;;;33.00;41.60;;;;;;5054367;28;20500;-78
2023/06/26 11:02:50;;;;;;;5.80;2.10;;;33.10;41.20;;;;;;5057650;28;20481;-78
2023/06/26 11:05:26;;;;;;;5.33;1.93;;;33.00;41.50;;;;;;5057991;28;20473;-78
2023/06/26 11:08:04;;;;;;;3.23;1.90;;;33.00;41.20;;;;;;5051832;28;20433;-78
2023/06/26 11:10:49;;;;;;;5.50;2.00;;;33.10;41.10;;;;;;5061660;28;20496;-78
2023/06/26 11:13:19;;;;;;;3.13;1.70;;;33.10;41.00;;;;;;5055112;28;20532;-79
2023/06/26 11:15:47;;;;;;;2.50;1.63;;;33.20;40.90;;;;;;5064736;28;20547;-78
2023/06/26 11:18:43;;;;;;;2.43;1.57;;;33.10;41.00;;;;;;5056999;28;20501;-78
2023/06/26 11:21:14;;;;;;;3.13;1.97;;;33.20;40.90;;;;;;5055846;28;20452;-77
2023/06/26 11:23:43;;;;;;;4.33;1.60;;;33.10;40.70;;;;;;5061275;28;20502;-78
2023/06/26 11:26:15;;;;;;;2.23;1.53;;;33.10;40.60;;;;;;5052885;28;20443;-78
2023/06/26 11:28:50;;;;;;;2.13;1.70;;;33.00;40.70;;;;;;5060991;28;20445;-78
2023/06/26 11:31:27;;;;;;;3.13;1.80;;;32.80;40.70;;;;;;5049675;28;20500;-77
2023/06/26 11:33:58;;;;;;;2.03;1.60;;;32.80;40.90;;;;;;5065631;28;20999;-78
2023/06/26 11:36:26;;;;;;;2.60;1.90;;;32.70;40.70;;;;;;5051117;28;20453;-78
2023/06/26 11:38:55;;;;;;;3.17;1.93;;;32.80;40.80;;;;;;5049982;28;20451;-78
2023/06/26 11:41:24;;;;;;;2.13;1.50;;;33.00;40.80;;;;;;5054529;28;20468;-78
2023/06/26 11:43:52;;;;;;;1.90;1.80;;;33.00;40.50;;;;;;5054549;28;20480;-78
2023/06/26 11:46:21;;;;;;;6.93;1.97;;;33.00;40.30;;;;;;5051073;28;20460;-78
2023/06/26 11:48:50;;;;;;;3.20;2.07;;;33.00;40.10;;;;;;5059058;28;20451;-79
2023/06/26 11:51:19;;;;;;;4.03;2.00;;;33.10;40.20;;;;;;5054219;28;20470;-78
2023/06/26 11:53:48;;;;;;;3.00;2.00;;;33.20;39.90;;;;;;5051389;28;20450;-79
2023/06/26 11:56:17;;;;;;;2.30;1.93;;;33.10;40.30;;;;;;5071393;28;20458;-80
2023/06/26 11:58:58;;;;;;;2.77;2.20;;;33.00;40.60;;;;;;5060105;28;20475;-79
2023/06/26 12:01:27;;;;;;;7.27;2.27;;;33.00;40.70;;;;;;5048074;28;20469;-80
2023/06/26 12:04:02;;;;;;;4.87;2.10;;;32.90;41.00;;;;;;5054072;28;20492;-78
2023/06/26 12:06:35;;;;;;;3.03;1.67;;;32.90;41.30;;;;;;5045943;28;20446;-81
2023/06/26 12:09:05;;;;;;;4.03;2.10;;;32.90;41.10;;;;;;5046471;28;20446;-79
2023/06/26 12:11:33;;;;;;;2.33;2.13;;;32.80;40.60;;;;;;5056186;28;20520;-78
2023/06/26 12:14:01;;;;;;;5.30;1.93;;;32.80;40.70;;;;;;5051737;28;20465;-78
2023/06/26 12:16:31;;;;;;;3.83;2.20;;;33.00;40.70;;;;;;5055397;28;20447;-78
2023/06/26 12:19:00;;;;;;;4.67;2.60;;;33.10;40.70;;;;;;5052041;28;20447;-78
2023/06/26 12:21:52;;;;;;;4.40;2.10;;;33.20;40.50;;;;;;5048581;28;20497;-78
2023/06/26 12:24:22;;;;;;;8.90;2.10;;;33.30;40.60;;;;;;5054933;28;20473;-78
2023/06/26 12:26:53;;;;;;;4.67;2.10;;;33.20;39.90;;;;;;5063908;28;20493;-80
2023/06/26 12:29:22;;;;;;;3.10;1.90;;;33.10;39.70;;;;;;5059057;28;20439;-78
2023/06/26 12:31:51;;;;;;;5.40;2.03;;;33.00;39.70;;;;;;5055855;28;20478;-79
2023/06/26 12:34:21;;;;;;;1.83;1.50;;;32.90;39.80;;;;;;5054511;28;20545;-78
2023/06/26 12:36:51;;;;;;;2.63;2.03;;;32.90;40.20;;;;;;5056193;28;20439;-79
2023/06/26 12:39:20;;;;;;;3.50;2.23;;;32.90;40.60;;;;;;5051442;28;20474;-81
2023/06/26 12:41:49;;;;;;;7.70;2.03;;;33.00;39.40;;;;;;5048993;28;20484;-77
2023/06/26 12:44:21;;;;;;;9.27;1.87;;;33.10;39.20;;;;;;5042336;28;20536;-77
2023/06/26 12:46:50;;;;;;;2.63;2.43;;;33.10;39.20;;;;;;5052601;28;20450;-78
2023/06/26 12:49:19;;;;;;;7.27;2.47;;;33.10;39.40;;;;;;5052972;28;20439;-79